Terminal Aerodrome Forecast
Issued by NWS Grand Forks, ND

Home | Current Version | Previous Version | Text Only | Print | Product List | Glossary Off
Versions: 1 2 3 4 5 6 7 8 9 10 11 12 13 14 15 16 17 18 19

000
FTUS43 KFGF 301135
TAFGFK
TAF
KGFK 301135Z 3012/0112 03005KT 4SM BR SCT080 BKN200
     FM301400 31007KT P6SM SCT080 BKN200
     FM010000 05007KT P6SM BKN100=

USA.gov is the U.S. government's official web portal to all federal, state and local government web resources and services.